Terminal Aerodrome Forecast
Issued by NWS

Current Version | Previous Version | Graphics & Text | Print | Product List | Glossary On
Versions: 1 2 3 4 5 6 7 8 9 10 11 12 13 14 15 16 17 18
032
FTUS41 KPBZ 220521
TAFMGW
TAF
KMGW 220521Z 2206/2306 20004KT P6SM BKN080
     FM230500 19007KT P6SM -SHRA BKN035=

USA.gov is the U.S. government's official web portal to all federal, state and local government web resources and services.